sensor_id;sensor_type;location;lat;lon;timestamp;pressure;altitude;pressure_sealevel;temperature;humidity
27425;BME280;15244;49.088;11.886;2023-04-27T00:02:31;95894.41;;;10.94;36.91
27425;BME280;15244;49.088;11.886;2023-04-27T00:08:00;95890.09;;;10.93;36.80
27425;BME280;15244;49.088;11.886;2023-04-27T00:13:15;95880.38;;;10.92;37.43
27425;BME280;15244;49.088;11.886;2023-04-27T00:18:44;95881.16;;;10.93;37.54
27425;BME280;15244;49.088;11.886;2023-04-27T00:23:59;95887.75;;;10.88;37.28
27425;BME280;15244;49.088;11.886;2023-04-27T00:29:28;95873.69;;;10.86;37.11
27425;BME280;15244;49.088;11.886;2023-04-27T00:34:43;95881.09;;;10.85;36.86
27425;BME280;15244;49.088;11.886;2023-04-27T00:40:12;95872.16;;;10.85;37.21
27425;BME280;15244;49.088;11.886;2023-04-27T00:45:27;95883.06;;;10.85;37.58
27425;BME280;15244;49.088;11.886;2023-04-27T00:50:56;95881.09;;;10.85;37.90
27425;BME280;15244;49.088;11.886;2023-04-27T00:56:11;95877.97;;;10.83;37.97
27425;BME280;15244;49.088;11.886;2023-04-27T01:01:40;95867.47;;;10.82;38.20
27425;BME280;15244;49.088;11.886;2023-04-27T01:07:02;95869.00;;;10.79;38.58
27425;BME280;15244;49.088;11.886;2023-04-27T01:12:31;95864.28;;;10.73;39.16
27425;BME280;15244;49.088;11.886;2023-04-27T01:17:46;95868.56;;;10.70;39.45
27425;BME280;15244;49.088;11.886;2023-04-27T01:23:15;95859.59;;;10.70;39.60
27425;BME280;15244;49.088;11.886;2023-04-27T01:28:30;95863.50;;;10.69;39.60
27425;BME280;15244;49.088;11.886;2023-04-27T01:34:00;95865.81;;;10.67;39.33
27425;BME280;15244;49.088;11.886;2023-04-27T01:39:15;95854.09;;;10.62;38.00
27425;BME280;15244;49.088;11.886;2023-04-27T01:44:44;95861.88;;;10.60;37.88
27425;BME280;15244;49.088;11.886;2023-04-27T01:49:59;95869.25;;;10.60;37.73
27425;BME280;15244;49.088;11.886;2023-04-27T01:55:28;95878.22;;;10.60;37.81
27425;BME280;15244;49.088;11.886;2023-04-27T02:00:57;95878.63;;;10.62;37.96
27425;BME280;15244;49.088;11.886;2023-04-27T02:06:12;95868.91;;;10.61;38.69
27425;BME280;15244;49.088;11.886;2023-04-27T02:11:41;95879.81;;;10.61;38.88
27425;BME280;15244;49.088;11.886;2023-04-27T02:16:56;95874.72;;;10.60;38.02
27425;BME280;15244;49.088;11.886;2023-04-27T02:22:26;95882.50;;;10.58;37.97
27425;BME280;15244;49.088;11.886;2023-04-27T02:27:41;95887.16;;;10.54;38.54
27425;BME280;15244;49.088;11.886;2023-04-27T02:33:10;95882.06;;;10.52;38.53
27425;BME280;15244;49.088;11.886;2023-04-27T02:38:25;95882.06;;;10.49;38.75
27425;BME280;15244;49.088;11.886;2023-04-27T02:43:54;95890.59;;;10.47;38.80
27425;BME280;15244;49.088;11.886;2023-04-27T02:49:09;95890.19;;;10.45;39.26
27425;BME280;15244;49.088;11.886;2023-04-27T02:54:38;95889.78;;;10.43;39.01
27425;BME280;15244;49.088;11.886;2023-04-27T02:59:53;95885.09;;;10.40;38.88
27425;BME280;15244;49.088;11.886;2023-04-27T03:05:24;95886.63;;;10.37;38.40
27425;BME280;15244;49.088;11.886;2023-04-27T03:10:54;95898.66;;;10.33;38.01
27425;BME280;15244;49.088;11.886;2023-04-27T03:16:10;95892.41;;;10.29;38.09
27425;BME280;15244;49.088;11.886;2023-04-27T03:21:39;95891.97;;;10.23;37.94
27425;BME280;15244;49.088;11.886;2023-04-27T03:26:54;95894.63;;;10.19;37.93
27425;BME280;15244;49.088;11.886;2023-04-27T03:32:24;95892.66;;;10.13;38.05
27425;BME280;15244;49.088;11.886;2023-04-27T03:37:39;95896.09;;;10.06;37.97
27425;BME280;15244;49.088;11.886;2023-04-27T03:43:08;95903.81;;;10.01;38.19
27425;BME280;15244;49.088;11.886;2023-04-27T03:48:23;95910.38;;;9.96;38.27
27425;BME280;15244;49.088;11.886;2023-04-27T03:53:52;95909.94;;;9.90;38.04
27425;BME280;15244;49.088;11.886;2023-04-27T03:59:07;95914.16;;;9.84;38.27
27425;BME280;15244;49.088;11.886;2023-04-27T04:04:36;95931.25;;;9.81;38.69
27425;BME280;15244;49.088;11.886;2023-04-27T04:09:51;95922.25;;;9.77;38.38
27425;BME280;15244;49.088;11.886;2023-04-27T04:15:20;95932.34;;;9.76;38.64
27425;BME280;15244;49.088;11.886;2023-04-27T04:20:49;95930.81;;;9.75;38.62
27425;BME280;15244;49.088;11.886;2023-04-27T04:26:04;95930.41;;;9.77;38.11
27425;BME280;15244;49.088;11.886;2023-04-27T04:31:34;95943.25;;;9.76;38.80
27425;BME280;15244;49.088;11.886;2023-04-27T04:36:49;95950.28;;;9.77;38.73
27425;BME280;15244;49.088;11.886;2023-04-27T04:42:21;95949.47;;;9.77;38.72
27425;BME280;15244;49.088;11.886;2023-04-27T04:47:36;95944.41;;;9.75;39.01
27425;BME280;15244;49.088;11.886;2023-04-27T04:53:05;95951.41;;;9.76;39.08
27425;BME280;15244;49.088;11.886;2023-04-27T04:58:20;95953.00;;;9.77;39.15
27425;BME280;15244;49.088;11.886;2023-04-27T05:03:50;95942.88;;;9.78;39.37
27425;BME280;15244;49.088;11.886;2023-04-27T05:09:05;95940.59;;;9.80;39.44
27425;BME280;15244;49.088;11.886;2023-04-27T05:14:34;95941.78;;;9.83;39.28
27425;BME280;15244;49.088;11.886;2023-04-27T05:19:49;95947.25;;;9.86;39.18
27425;BME280;15244;49.088;11.886;2023-04-27T05:25:18;95955.84;;;9.92;39.68
27425;BME280;15244;49.088;11.886;2023-04-27T05:30:33;95953.56;;;9.97;39.76
27425;BME280;15244;49.088;11.886;2023-04-27T05:36:02;95951.69;;;10.02;40.09
27425;BME280;15244;49.088;11.886;2023-04-27T05:41:17;95952.13;;;10.07;40.33
27425;BME280;15244;49.088;11.886;2023-04-27T05:46:46;95974.78;;;10.15;40.18
27425;BME280;15244;49.088;11.886;2023-04-27T05:52:01;95968.97;;;10.20;40.35
27425;BME280;15244;49.088;11.886;2023-04-27T05:57:30;95977.63;;;10.26;40.54
27425;BME280;15244;49.088;11.886;2023-04-27T06:02:45;95974.97;;;10.33;40.71
27425;BME280;15244;49.088;11.886;2023-04-27T06:08:14;95978.94;;;10.39;40.75
27425;BME280;15244;49.088;11.886;2023-04-27T06:13:30;95985.22;;;10.47;40.67
27425;BME280;15244;49.088;11.886;2023-04-27T06:18:59;95987.25;;;10.53;40.72
27425;BME280;15244;49.088;11.886;2023-04-27T06:24:14;95984.56;;;10.60;40.80
27425;BME280;15244;49.088;11.886;2023-04-27T06:29:43;95990.06;;;10.68;40.89
27425;BME280;15244;49.088;11.886;2023-04-27T06:34:58;95987.81;;;10.77;41.08
27425;BME280;15244;49.088;11.886;2023-04-27T06:40:27;95996.84;;;10.88;41.23
27425;BME280;15244;49.088;11.886;2023-04-27T06:45:42;96005.50;;;10.97;41.18
27425;BME280;15244;49.088;11.886;2023-04-27T06:51:11;95994.66;;;11.08;41.33
27425;BME280;15244;49.088;11.886;2023-04-27T06:56:26;96000.16;;;11.19;41.16
27425;BME280;15244;49.088;11.886;2023-04-27T07:01:54;96004.53;;;11.27;40.70
27425;BME280;15244;49.088;11.886;2023-04-27T07:07:16;96005.72;;;11.30;39.93
27425;BME280;15244;49.088;11.886;2023-04-27T07:12:46;96006.13;;;11.35;40.04
27425;BME280;15244;49.088;11.886;2023-04-27T07:18:01;96003.44;;;11.46;40.19
27425;BME280;15244;49.088;11.886;2023-04-27T07:23:30;96010.91;;;11.56;40.19
27425;BME280;15244;49.088;11.886;2023-04-27T07:28:45;95993.78;;;11.66;40.17
27425;BME280;15244;49.088;11.886;2023-04-27T07:34:14;96000.88;;;11.82;40.48
27425;BME280;15244;49.088;11.886;2023-04-27T07:39:30;96002.53;;;11.93;39.96
27425;BME280;15244;49.088;11.886;2023-04-27T07:44:58;95994.34;;;12.04;39.80
27425;BME280;15244;49.088;11.886;2023-04-27T07:50:15;95996.34;;;12.18;40.18
27425;BME280;15244;49.088;11.886;2023-04-27T07:55:46;96006.91;;;12.34;39.75
27425;BME280;15244;49.088;11.886;2023-04-27T08:01:01;96014.75;;;12.46;39.23
27425;BME280;15244;49.088;11.886;2023-04-27T08:06:29;96015.56;;;12.61;39.44
27425;BME280;15244;49.088;11.886;2023-04-27T08:11:46;96017.50;;;12.75;38.74
27425;BME280;15244;49.088;11.886;2023-04-27T08:17:14;96021.41;;;12.88;38.64
27425;BME280;15244;49.088;11.886;2023-04-27T08:22:32;96018.69;;;12.95;38.24
27425;BME280;15244;49.088;11.886;2023-04-27T08:28:00;96028.47;;;13.07;37.97
27425;BME280;15244;49.088;11.886;2023-04-27T08:33:16;96021.00;;;13.18;37.66
27425;BME280;15244;49.088;11.886;2023-04-27T08:38:44;96020.25;;;13.29;37.63
27425;BME280;15244;49.088;11.886;2023-04-27T08:44:00;96018.66;;;13.42;37.41
27425;BME280;15244;49.088;11.886;2023-04-27T08:49:28;96010.41;;;13.56;37.39
27425;BME280;15244;49.088;11.886;2023-04-27T08:54:44;96014.28;;;13.66;36.45
27425;BME280;15244;49.088;11.886;2023-04-27T09:00:13;96017.75;;;13.81;36.18
27425;BME280;15244;49.088;11.886;2023-04-27T09:05:29;96020.84;;;13.94;35.84
27425;BME280;15244;49.088;11.886;2023-04-27T09:11:35;96023.50;;;14.12;35.98
27425;BME280;15244;49.088;11.886;2023-04-27T09:16:57;96026.97;;;14.23;35.75
27425;BME280;15244;49.088;11.886;2023-04-27T09:22:25;96016.38;;;14.25;35.39
27425;BME280;15244;49.088;11.886;2023-04-27T09:27:42;96012.09;;;14.24;35.39
27425;BME280;15244;49.088;11.886;2023-04-27T09:33:12;96019.13;;;14.28;35.20
27425;BME280;15244;49.088;11.886;2023-04-27T09:38:28;96012.00;;;14.38;34.92
27425;BME280;15244;49.088;11.886;2023-04-27T09:43:57;96007.22;;;14.57;34.85
27425;BME280;15244;49.088;11.886;2023-04-27T09:49:12;96003.91;;;14.76;34.45
27425;BME280;15244;49.088;11.886;2023-04-27T09:54:42;95997.50;;;14.93;34.36
27425;BME280;15244;49.088;11.886;2023-04-27T10:00:29;95979.81;;;15.02;33.58
27425;BME280;15244;49.088;11.886;2023-04-27T10:06:20;95979.66;;;15.16;33.83
27425;BME280;15244;49.088;11.886;2023-04-27T10:11:54;95987.00;;;15.26;33.86
27425;BME280;15244;49.088;11.886;2023-04-27T10:17:09;95987.00;;;15.30;33.75
27425;BME280;15244;49.088;11.886;2023-04-27T10:22:46;95982.53;;;15.43;33.78
27425;BME280;15244;49.088;11.886;2023-04-27T10:28:02;95973.00;;;15.55;33.50
27425;BME280;15244;49.088;11.886;2023-04-27T10:33:41;95974.78;;;15.69;33.05
27425;BME280;15244;49.088;11.886;2023-04-27T10:38:57;95963.16;;;15.92;33.05
27425;BME280;15244;49.088;11.886;2023-04-27T10:44:27;95963.59;;;16.17;33.46
27425;BME280;15244;49.088;11.886;2023-04-27T10:49:42;95966.00;;;16.42;33.40
27425;BME280;15244;49.088;11.886;2023-04-27T10:55:15;95953.94;;;16.60;33.09
27425;BME280;15244;49.088;11.886;2023-04-27T11:00:40;95952.25;;;16.66;32.32
27425;BME280;15244;49.088;11.886;2023-04-27T11:06:08;95947.47;;;16.70;31.95
27425;BME280;15244;49.088;11.886;2023-04-27T11:11:24;95950.66;;;16.68;31.56
27425;BME280;15244;49.088;11.886;2023-04-27T11:16:53;95947.22;;;16.61;30.72
27425;BME280;15244;49.088;11.886;2023-04-27T11:22:09;95954.72;;;16.60;30.82
27425;BME280;15244;49.088;11.886;2023-04-27T11:27:39;95956.38;;;16.54;30.75
27425;BME280;15244;49.088;11.886;2023-04-27T11:32:54;95939.75;;;16.61;30.70
27425;BME280;15244;49.088;11.886;2023-04-27T11:38:22;95944.53;;;16.84;31.46
27425;BME280;15244;49.088;11.886;2023-04-27T11:43:42;95949.00;;;16.98;31.43
27425;BME280;15244;49.088;11.886;2023-04-27T11:49:11;95941.34;;;17.09;31.04
27425;BME280;15244;49.088;11.886;2023-04-27T11:54:29;95945.81;;;17.23;30.91
27425;BME280;15244;49.088;11.886;2023-04-27T11:59:59;95941.78;;;17.28;30.68
27425;BME280;15244;49.088;11.886;2023-04-27T12:05:15;95942.19;;;17.50;30.80
27425;BME280;15244;49.088;11.886;2023-04-27T12:10:44;95935.72;;;17.76;30.82
27425;BME280;15244;49.088;11.886;2023-04-27T12:15:59;95939.22;;;17.81;29.86
27425;BME280;15244;49.088;11.886;2023-04-27T12:21:27;95937.66;;;17.80;29.77
27425;BME280;15244;49.088;11.886;2023-04-27T12:26:43;95955.00;;;17.80;29.47
27425;BME280;15244;49.088;11.886;2023-04-27T12:32:11;95939.47;;;17.66;29.42
27425;BME280;15244;49.088;11.886;2023-04-27T12:37:27;95933.91;;;17.70;29.50
27425;BME280;15244;49.088;11.886;2023-04-27T12:42:55;95931.78;;;17.77;29.31
27425;BME280;15244;49.088;11.886;2023-04-27T12:48:11;95928.47;;;17.86;29.52
27425;BME280;15244;49.088;11.886;2023-04-27T12:53:39;95930.94;;;18.01;29.69
27425;BME280;15244;49.088;11.886;2023-04-27T12:58:55;95940.47;;;17.96;28.81
27425;BME280;15244;49.088;11.886;2023-04-27T13:04:23;95925.75;;;18.03;29.29
27425;BME280;15244;49.088;11.886;2023-04-27T13:09:39;95930.84;;;18.04;29.05
27425;BME280;15244;49.088;11.886;2023-04-27T13:15:08;95932.69;;;18.11;29.31
27425;BME280;15244;49.088;11.886;2023-04-27T13:20:23;95938.09;;;18.14;29.20
27425;BME280;15244;49.088;11.886;2023-04-27T13:25:52;95926.91;;;18.22;29.20
27425;BME280;15244;49.088;11.886;2023-04-27T13:31:07;95921.91;;;18.33;28.66
27425;BME280;15244;49.088;11.886;2023-04-27T13:36:35;95920.72;;;18.34;28.54
27425;BME280;15244;49.088;11.886;2023-04-27T13:41:51;95917.97;;;18.34;28.56
27425;BME280;15244;49.088;11.886;2023-04-27T13:47:19;95909.94;;;18.39;28.78
27425;BME280;15244;49.088;11.886;2023-04-27T13:52:36;95900.97;;;18.52;28.78
27425;BME280;15244;49.088;11.886;2023-04-27T13:58:04;95896.41;;;18.61;29.00
27425;BME280;15244;49.088;11.886;2023-04-27T14:03:20;95897.63;;;18.77;29.07
27425;BME280;15244;49.088;11.886;2023-04-27T14:08:48;95889.66;;;18.95;28.82
27425;BME280;15244;49.088;11.886;2023-04-27T14:14:17;95889.44;;;19.19;28.71
27425;BME280;15244;49.088;11.886;2023-04-27T14:19:32;95890.31;;;19.16;27.82
27425;BME280;15244;49.088;11.886;2023-04-27T14:25:01;95882.72;;;19.20;27.87
27425;BME280;15244;49.088;11.886;2023-04-27T14:30:17;95880.59;;;19.24;27.67
27425;BME280;15244;49.088;11.886;2023-04-27T14:35:45;95878.56;;;19.41;27.93
27425;BME280;15244;49.088;11.886;2023-04-27T14:41:01;95879.69;;;19.43;27.48
27425;BME280;15244;49.088;11.886;2023-04-27T14:46:29;95887.22;;;19.43;27.42
27425;BME280;15244;49.088;11.886;2023-04-27T14:51:45;95886.31;;;19.46;27.67
27425;BME280;15244;49.088;11.886;2023-04-27T14:57:13;95880.69;;;19.49;27.62
27425;BME280;15244;49.088;11.886;2023-04-27T15:02:28;95887.25;;;19.56;27.29
27425;BME280;15244;49.088;11.886;2023-04-27T15:07:57;95887.81;;;19.63;27.45
27425;BME280;15244;49.088;11.886;2023-04-27T15:13:12;95882.56;;;19.82;27.42
27425;BME280;15244;49.088;11.886;2023-04-27T15:18:41;95895.88;;;20.00;27.40
27425;BME280;15244;49.088;11.886;2023-04-27T15:23:57;95899.09;;;20.11;26.97
27425;BME280;15244;49.088;11.886;2023-04-27T15:29:25;95885.34;;;20.20;27.08
27425;BME280;15244;49.088;11.886;2023-04-27T15:34:40;95890.25;;;20.29;27.09
27425;BME280;15244;49.088;11.886;2023-04-27T15:40:11;95888.38;;;20.26;26.67
27425;BME280;15244;49.088;11.886;2023-04-27T15:45:26;95877.06;;;20.20;26.56
27425;BME280;15244;49.088;11.886;2023-04-27T15:50:55;95870.41;;;20.18;26.84
27425;BME280;15244;49.088;11.886;2023-04-27T15:56:11;95878.41;;;20.16;26.54
27425;BME280;15244;49.088;11.886;2023-04-27T16:01:39;95873.97;;;20.18;26.57
27425;BME280;15244;49.088;11.886;2023-04-27T16:06:54;95878.72;;;20.18;26.49
27425;BME280;15244;49.088;11.886;2023-04-27T16:12:24;95867.56;;;20.08;26.44
27425;BME280;15244;49.088;11.886;2023-04-27T16:17:38;95867.00;;;20.01;26.37
27425;BME280;15244;49.088;11.886;2023-04-27T16:23:07;95853.81;;;19.92;26.70
27425;BME280;15244;49.088;11.886;2023-04-27T16:28:23;95859.22;;;19.83;26.73
27425;BME280;15244;49.088;11.886;2023-04-27T16:33:52;95850.25;;;19.79;26.69
27425;BME280;15244;49.088;11.886;2023-04-27T16:39:07;95850.69;;;19.77;26.82
27425;BME280;15244;49.088;11.886;2023-04-27T16:44:37;95859.44;;;19.76;26.67
27425;BME280;15244;49.088;11.886;2023-04-27T16:49:51;95849.56;;;19.75;26.76
27425;BME280;15244;49.088;11.886;2023-04-27T16:55:20;95848.38;;;19.76;26.61
27425;BME280;15244;49.088;11.886;2023-04-27T17:00:35;95851.13;;;19.76;26.75
27425;BME280;15244;49.088;11.886;2023-04-27T17:06:05;95845.59;;;19.76;26.95
27425;BME280;15244;49.088;11.886;2023-04-27T17:11:20;95845.16;;;19.77;27.05
27425;BME280;15244;49.088;11.886;2023-04-27T17:16:48;95847.06;;;19.80;26.83
27425;BME280;15244;49.088;11.886;2023-04-27T17:22:03;95847.38;;;19.82;26.72
27425;BME280;15244;49.088;11.886;2023-04-27T17:27:33;95846.38;;;19.89;26.84
27425;BME280;15244;49.088;11.886;2023-04-27T17:32:48;95851.50;;;19.90;26.46
27425;BME280;15244;49.088;11.886;2023-04-27T17:38:17;95850.47;;;19.84;26.82
27425;BME280;15244;49.088;11.886;2023-04-27T17:43:32;95851.13;;;19.76;26.57
27425;BME280;15244;49.088;11.886;2023-04-27T17:49:01;95855.75;;;19.66;26.50
27425;BME280;15244;49.088;11.886;2023-04-27T17:54:16;95847.00;;;19.55;26.70
27425;BME280;15244;49.088;11.886;2023-04-27T17:59:45;95846.09;;;19.45;27.07
27425;BME280;15244;49.088;11.886;2023-04-27T18:05:01;95847.59;;;19.33;27.40
27425;BME280;15244;49.088;11.886;2023-04-27T18:10:29;95853.84;;;19.21;28.17
27425;BME280;15244;49.088;11.886;2023-04-27T18:15:44;95845.09;;;19.10;28.81
27425;BME280;15244;49.088;11.886;2023-04-27T18:21:13;95850.13;;;18.98;28.82
27425;BME280;15244;49.088;11.886;2023-04-27T18:26:28;95847.75;;;18.84;28.68
27425;BME280;15244;49.088;11.886;2023-04-27T18:31:57;95859.13;;;18.70;28.72
27425;BME280;15244;49.088;11.886;2023-04-27T18:37:14;95857.06;;;18.57;28.59
27425;BME280;15244;49.088;11.886;2023-04-27T18:42:43;95860.16;;;18.43;28.69
27425;BME280;15244;49.088;11.886;2023-04-27T18:47:59;95861.72;;;18.28;28.62
27425;BME280;15244;49.088;11.886;2023-04-27T18:53:27;95867.59;;;18.13;28.68
27425;BME280;15244;49.088;11.886;2023-04-27T18:58:43;95873.00;;;18.01;28.85
27425;BME280;15244;49.088;11.886;2023-04-27T19:04:11;95869.34;;;17.87;28.94
27425;BME280;15244;49.088;11.886;2023-04-27T19:09:26;95881.03;;;17.75;29.23
27425;BME280;15244;49.088;11.886;2023-04-27T19:14:55;95882.34;;;17.67;29.17
27425;BME280;15244;49.088;11.886;2023-04-27T19:20:10;95886.88;;;17.57;29.39
27425;BME280;15244;49.088;11.886;2023-04-27T19:25:39;95881.19;;;17.48;29.52
27425;BME280;15244;49.088;11.886;2023-04-27T19:30:55;95887.25;;;17.39;29.54
27425;BME280;15244;49.088;11.886;2023-04-27T19:36:23;95883.94;;;17.28;29.86
27425;BME280;15244;49.088;11.886;2023-04-27T19:41:40;95878.19;;;17.19;30.06
27425;BME280;15244;49.088;11.886;2023-04-27T19:47:08;95881.16;;;17.08;30.11
27425;BME280;15244;49.088;11.886;2023-04-27T19:52:26;95890.47;;;16.94;30.52
27425;BME280;15244;49.088;11.886;2023-04-27T19:57:56;95884.38;;;16.83;30.58
27425;BME280;15244;49.088;11.886;2023-04-27T20:03:10;95882.91;;;16.75;30.67
27425;BME280;15244;49.088;11.886;2023-04-27T20:08:39;95873.22;;;16.66;30.62
27425;BME280;15244;49.088;11.886;2023-04-27T20:14:08;95873.81;;;16.54;30.69
27425;BME280;15244;49.088;11.886;2023-04-27T20:19:24;95874.72;;;16.47;30.98
27425;BME280;15244;49.088;11.886;2023-04-27T20:24:52;95875.25;;;16.39;30.85
27425;BME280;15244;49.088;11.886;2023-04-27T20:30:08;95876.13;;;16.32;31.14
27425;BME280;15244;49.088;11.886;2023-04-27T20:35:36;95874.28;;;16.25;31.13
27425;BME280;15244;49.088;11.886;2023-04-27T20:40:52;95876.78;;;16.16;31.46
27425;BME280;15244;49.088;11.886;2023-04-27T20:46:21;95887.88;;;16.09;31.44
27425;BME280;15244;49.088;11.886;2023-04-27T20:51:36;95882.06;;;16.03;31.87
27425;BME280;15244;49.088;11.886;2023-04-27T20:57:05;95873.16;;;15.96;31.88
27425;BME280;15244;49.088;11.886;2023-04-27T21:02:26;95871.63;;;15.91;32.16
27425;BME280;15244;49.088;11.886;2023-04-27T21:07:55;95866.25;;;15.84;32.29
27425;BME280;15244;49.088;11.886;2023-04-27T21:13:25;95869.88;;;15.77;32.34
27425;BME280;15244;49.088;11.886;2023-04-27T21:18:54;95863.28;;;15.71;32.50
27425;BME280;15244;49.088;11.886;2023-04-27T21:24:09;95869.22;;;15.66;32.63
27425;BME280;15244;49.088;11.886;2023-04-27T21:29:39;95850.84;;;15.59;32.77
27425;BME280;15244;49.088;11.886;2023-04-27T21:34:54;95858.75;;;15.54;32.85
27425;BME280;15244;49.088;11.886;2023-04-27T21:40:24;95852.94;;;15.48;32.95
27425;BME280;15244;49.088;11.886;2023-04-27T21:45:38;95853.03;;;15.41;33.00
27425;BME280;15244;49.088;11.886;2023-04-27T21:51:07;95861.38;;;15.34;32.99
27425;BME280;15244;49.088;11.886;2023-04-27T21:56:23;95857.94;;;15.26;33.13
27425;BME280;15244;49.088;11.886;2023-04-27T22:01:51;95843.94;;;15.17;33.21
27425;BME280;15244;49.088;11.886;2023-04-27T22:07:06;95846.69;;;15.13;33.59
27425;BME280;15244;49.088;11.886;2023-04-27T22:12:35;95851.47;;;15.09;33.75
27425;BME280;15244;49.088;11.886;2023-04-27T22:17:50;95847.59;;;15.03;33.91
27425;BME280;15244;49.088;11.886;2023-04-27T22:23:19;95845.31;;;14.98;34.16
27425;BME280;15244;49.088;11.886;2023-04-27T22:28:34;95849.28;;;14.93;34.38
27425;BME280;15244;49.088;11.886;2023-04-27T22:34:03;95850.53;;;14.89;34.18
27425;BME280;15244;49.088;11.886;2023-04-27T22:39:18;95851.75;;;14.84;34.49
27425;BME280;15244;49.088;11.886;2023-04-27T22:44:47;95840.00;;;14.80;34.60
27425;BME280;15244;49.088;11.886;2023-04-27T22:50:03;95839.25;;;14.76;34.58
27425;BME280;15244;49.088;11.886;2023-04-27T22:55:31;95826.78;;;14.71;34.64
27425;BME280;15244;49.088;11.886;2023-04-27T23:00:46;95828.78;;;14.67;35.04
27425;BME280;15244;49.088;11.886;2023-04-27T23:06:15;95831.19;;;14.62;35.06
27425;BME280;15244;49.088;11.886;2023-04-27T23:11:30;95826.91;;;14.57;35.19
27425;BME280;15244;49.088;11.886;2023-04-27T23:17:00;95823.41;;;14.53;35.30
27425;BME280;15244;49.088;11.886;2023-04-27T23:22:15;95825.34;;;14.52;35.36
27425;BME280;15244;49.088;11.886;2023-04-27T23:27:44;95817.53;;;14.51;35.50
27425;BME280;15244;49.088;11.886;2023-04-27T23:32:59;95808.94;;;14.49;35.44
27425;BME280;15244;49.088;11.886;2023-04-27T23:38:28;95825.03;;;14.47;35.52
27425;BME280;15244;49.088;11.886;2023-04-27T23:43:43;95814.44;;;14.45;35.79
27425;BME280;15244;49.088;11.886;2023-04-27T23:49:12;95811.75;;;14.42;35.93
27425;BME280;15244;49.088;11.886;2023-04-27T23:54:31;95815.31;;;14.39;36.09
